Aldrich, MN (56434)

10:40 PM CST on December 03, 2016 (GMT -0600)
Staples Municipal | | Change Station

Elev 1286 ft 46.38 °N, 94.81 °W | Updated 7 minutes ago

Light Snow
Light Snow
28 °F
Feels Like 20 °F
N
9
Wind Variable Wind from SSE
Gusts 16 mph

Today
High -- | Low -- °F
--% Chance of Precip.
Yesterday
High -- | Low -- °F
Precip. -- in
Pressure 30.02 in
Visibility 7.0 miles
Clouds Overcast 1400 ft
Windchill 20 °F
Dew Point 25 °F
Humidity 86%
Rainfall 0.00 in
Snow Depth Not available.
7:45 AM 4:33 PM
Waxing Crescent, 19% visible
METAR KSAZ 040433Z AUTO 15008G14KT 7SM -SN OVC014 M02/M04 A3002 RMK AO2
Pressure 30.02 in
Visibility 7.0 miles
Clouds Overcast 1400 ft
Windchill 20 °F
Dew Point 25 °F
Humidity 86%
Rainfall 0.00 in
Snow Depth Not available.
7:45 AM 4:33 PM
Waxing Crescent, 19% visible
METAR KSAZ 040433Z AUTO 15008G14KT 7SM -SN OVC014 M02/M04 A3002 RMK AO2

10-Day Weather Forecast

Almanac

Astronomy

Dec. 03, 2016 Rise Set
Actual Time
Civil Twilight
Nautical Twilight
Astronomical Twilight
Moon
Length of Visible Light
Length of Day
Tomorrow will be .
, % of the Moon is Illuminated

Today's Extremes

State Highs State Lows

Community

WunderPhotos

Upload Photos

1,955,581 photos uploaded!

WunderBlog® & News

Nearby

Air Quality

  Air Quality AQ Index Pollutant
Not available.

Snow Depth

Station Depth Elevation

Earthquake Activity

City Distance Mag. Time & Date
Minimum magnitude displayed is 2.5.

Coastal Water Temperatures

Place Temperature

Stations

Nearby Weather Stations

Station Location Temp. Windchill Dew Point Humidity Wind Precip. Elev Updated Type
                   

Watches & Warnings

There are currently no watches in effect.